Flight Track Log - Related Links

Times and Time Zones

All times are in EDT time to prevent confusion due to time zone crossing. See the CSN3523 flight status page for this flight to view local times or setup timezone preferences in your user account.

Time Position Orientation Groundspeed Altitude Reporting Facility
EDT Latitude Longitude Course Direction KTS MPH feet Rate Location/Type
Wed 08:38:00 PM 23.9475 114.5740 38° Northeast  Level Estimated
Wed 08:39:00 PM 24.0347 114.6488 38° Northeast  Level Estimated
Wed 08:40:00 PM 24.1219 114.7237 38° Northeast  Level Estimated
Wed 08:41:00 PM 24.2091 114.7987 38° Northeast  Level Estimated
Wed 08:42:00 PM 24.2962 114.8738 38° Northeast  Level Estimated
Wed 08:43:00 PM 24.3832 114.9490 38° Northeast  Level Estimated
Wed 08:44:00 PM 24.4703 115.0243 38° Northeast  Level Estimated
Wed 08:45:00 PM 24.5573 115.0997 38° Northeast  Level Estimated
Wed 08:46:00 PM 24.6442 115.1752 38° Northeast  Level Estimated
Wed 08:47:00 PM 24.7311 115.2509 38° Northeast  Level Estimated
Wed 08:48:00 PM 24.8180 115.3266 38° Northeast  Level Estimated
Wed 08:49:00 PM 24.9049 115.4025 38° Northeast  Level Estimated
Wed 08:50:00 PM 24.9917 115.4784 38° Northeast  Level Estimated
Wed 08:51:00 PM 25.0784 115.5544 38° Northeast  Level Estimated
Wed 08:52:00 PM 25.1652 115.6306 38° Northeast  Level Estimated
Wed 08:53:00 PM 25.2519 115.7069 39° Northeast  Level Estimated
Wed 08:54:00 PM 25.3385 115.7832 39° Northeast  Level Estimated
Wed 08:55:00 PM 25.4251 115.8597 39° Northeast  Level Estimated
Wed 08:56:00 PM 25.5117 115.9363 39° Northeast  Level Estimated
Wed 08:57:00 PM 25.5982 116.0130 39° Northeast  Level Estimated
Wed 08:58:00 PM 25.6847 116.0899 39° Northeast  Level Estimated
Wed 08:59:00 PM 25.7712 116.1668 39° Northeast  Level Estimated
Wed 09:00:00 PM 25.8576 116.2438 39° Northeast  Level Estimated
Wed 09:01:00 PM 25.9440 116.3210 39° Northeast  Level Estimated
Wed 09:02:00 PM 26.0303 116.3983 39° Northeast  Level Estimated
Wed 09:03:00 PM 26.1166 116.4756 39° Northeast  Level Estimated
Wed 09:04:00 PM 26.2028 116.5531 39° Northeast  Level Estimated
Wed 09:05:00 PM 26.2890 116.6308 39° Northeast  Level Estimated
Wed 09:06:00 PM 26.3752 116.7085 39° Northeast  Level Estimated
Wed 09:07:00 PM 26.4613 116.7863 39° Northeast  Level Estimated
Wed 09:08:00 PM 26.5474 116.8643 39° Northeast  Level Estimated
Wed 09:09:00 PM 26.6334 116.9424 39° Northeast  Level Estimated
Wed 09:10:00 PM 26.7194 117.0206 39° Northeast  Level Estimated
Wed 09:11:00 PM 26.8054 117.0989 39° Northeast  Level Estimated
Wed 09:12:00 PM 26.8913 117.1773 39° Northeast  Level Estimated
Wed 09:13:00 PM 26.9771 117.2558 39° Northeast  Level Estimated
Wed 09:14:00 PM 27.0630 117.3345 39° Northeast  Level Estimated
Wed 09:15:00 PM 27.1487 117.4133 39° Northeast  Level Estimated
Wed 09:16:00 PM 27.2345 117.4922 39° Northeast  Level Estimated
Wed 09:17:00 PM 27.3202 117.5712 39° Northeast  Level Estimated
Wed 09:18:00 PM 27.4058 117.6504 39° Northeast  Level Estimated
Wed 09:19:00 PM 27.4914 117.7297 39° Northeast  Level Estimated
Wed 09:20:00 PM 27.5770 117.8091 39° Northeast  Level Estimated
Wed 09:21:00 PM 27.6625 117.8886 39° Northeast  Level Estimated
Wed 09:22:00 PM 27.7479 117.9682 40° Northeast  Level Estimated
Wed 09:23:00 PM 27.8333 118.0480 40° Northeast  Level Estimated
Wed 09:24:00 PM 27.9187 118.1279 40° Northeast  Level Estimated
Wed 09:25:00 PM 28.0040 118.2080 40° Northeast  Level Estimated
Wed 09:26:00 PM 28.0893 118.2881 40° Northeast  Level Estimated
Wed 09:27:00 PM 28.1746 118.3684 40° Northeast  Level Estimated
Wed 09:28:00 PM 28.2598 118.4488 40° Northeast  Level Estimated
Wed 09:29:00 PM 28.3449 118.5293 40° Northeast  Level Estimated
Wed 09:30:00 PM 28.4300 118.6100 40° Northeast  Level Estimated
Wed 09:31:00 PM 28.5150 118.6908 40° Northeast  Level Estimated
Wed 09:32:00 PM 28.6000 118.7717 40° Northeast  Level Estimated
Wed 09:33:00 PM 28.6850 118.8528 40° Northeast  Level Estimated
Wed 09:34:00 PM 28.7699 118.9340 40° Northeast  Level Estimated
Wed 09:35:00 PM 28.8547 119.0153 40° Northeast  Level Estimated
Wed 09:36:00 PM 28.9395 119.0967 40° Northeast  Level Estimated
Wed 09:37:00 PM 29.0243 119.1783 40° Northeast  Level Estimated
Wed 09:38:00 PM 29.1090 119.2601 40° Northeast  Level Estimated
Wed 09:39:00 PM 29.1936 119.3419 40° Northeast  Level Estimated
Wed 09:40:00 PM 29.2782 119.4239 40° Northeast  Level Estimated
Wed 09:41:00 PM 29.3628 119.5060 40° Northeast  Level Estimated
Wed 09:42:00 PM 29.4473 119.5883 40° Northeast  Level Estimated
Wed 09:43:00 PM 29.5317 119.6707 40° Northeast  Level Estimated
Wed 09:44:00 PM 29.6161 119.7532 40° Northeast  Level Estimated
Wed 09:45:00 PM 29.7005 119.8359 40° Northeast  Level Estimated
Wed 09:46:00 PM 29.7848 119.9187 40° Northeast  Level Estimated
Wed 09:47:00 PM 29.8690 120.0017 40° Northeast  Level Estimated
Wed 09:48:00 PM 29.9532 120.0848 41° Northeast  Level Estimated
Wed 09:49:00 PM 30.0374 120.1680 41° Northeast  Level Estimated
Wed 09:50:00 PM 30.1215 120.2514 41° Northeast  Level Estimated
Wed 09:51:00 PM 30.2055 120.3349 41° Northeast  Level Estimated
Wed 09:52:00 PM 30.2895 120.4186 41° Northeast  Level Estimated
Wed 09:53:00 PM 30.3734 120.5024 41° Northeast  Level Estimated
Wed 09:53:30 PM 30.9473 121.3115 14° North 285 328 7,100  Level FlightAware ADS-B (ZSSS / SHA)
Wed 09:53:50 PM 30.9737 121.3152 15° North 286 329 7,100  Level FlightAware ADS-B (ZSSS / SHA)
Wed 09:54:11 PM 31.0001 121.3189 15° North 286 329 7,100  Level FlightAware ADS-B (ZSSS / SHA)
Wed 09:54:31 PM 31.0190 121.3215 15° North 287 330 7,100  Level FlightAware ADS-B (ZSSS / SHA)
Wed 09:54:51 PM 31.0516 121.3261 14° North 287 330 7,100  Level FlightAware ADS-B (ZSSS / SHA)
Wed 09:55:11 PM 31.0772 121.3296 14° North 286 329 7,100  Level FlightAware ADS-B (ZSSS / SHA)
Wed 09:55:32 PM 31.1035 121.3332 14° North 286 329 7,100  Level FlightAware ADS-B (ZSSS / SHA)
Wed 09:55:46 PM 31.1218 121.3338 358° North 279 321 7,100  Level FlightAware ADS-B (ZSSS / SHA)
Wed 09:55:51 PM 31.1285 121.3320 349° North 274 315 7,100  Level FlightAware ADS-B (ZSSS / SHA)
Wed 09:55:56 PM 31.1346 121.3294 342° North 268 308 7,100  Level FlightAware ADS-B (ZSSS / SHA)
Wed 09:56:01 PM 31.1404 121.3256 334° Northwest 262 302 7,100  Level FlightAware ADS-B (ZSSS / SHA)
Wed 09:56:06 PM 31.1450 121.3218 328° Northwest 256 295 7,100  Level FlightAware ADS-B (ZSSS / SHA)
Wed 09:56:11 PM 31.1498 121.3165 320° Northwest 252 290 7,100  Level FlightAware ADS-B (ZSSS / SHA)
Wed 09:56:27 PM 31.1614 121.3011 319° Northwest 246 283 7,100 -400 Level FlightAware ADS-B (ZSSS / SHA)
Wed 09:56:41 PM 31.1728 121.2856 318° Northwest 251 289 6,900 -1,241 Descending FlightAware ADS-B (ZSSS / SHA)
Wed 09:56:56 PM 31.1841 121.2696 317° Northwest 255 293 6,500 -1,600 Descending FlightAware ADS-B (ZSSS / SHA)
Wed 09:57:11 PM 31.1967 121.2534 327° Northwest 258 297 6,100 -1,500 Descending FlightAware ADS-B (ZSSS / SHA)
Wed 09:57:16 PM 31.2017 121.2490 337° Northwest 259 298 6,000 -1,200 Descending FlightAware ADS-B (ZSSS / SHA)
Wed 09:57:21 PM 31.2068 121.2458 345° North 258 297 5,900 -600 Descending FlightAware ADS-B (ZSSS / SHA)
Wed 09:57:26 PM 31.2118 121.2436 352° North 258 297 5,900 -600 Level FlightAware ADS-B (ZSSS / SHA)
Wed 09:57:31 PM 31.2180 121.2420 357° North 256 295 5,800 -1,200 Descending FlightAware ADS-B (ZSSS / SHA)
Wed 09:57:41 PM 31.2303 121.2396 North 257 296 5,600 -1,200 Descending FlightAware ADS-B (ZSSS / SHA)
Wed 09:57:56 PM 31.2474 121.2369 North 254 292 5,300 -1,000 Descending FlightAware ADS-B (ZSSS / SHA)
Wed 09:58:11 PM 31.2657 121.2336 North 249 287 5,100 -600 Descending FlightAware ADS-B (ZSSS / SHA)
Wed 09:58:26 PM 31.2820 121.2305 North 241 277 5,000 -571 Descending FlightAware ADS-B (ZSSS / SHA)
Wed 09:58:32 PM 31.2882 121.2293 359° North 239 275 4,900 -545 Descending FlightAware ADS-B (ZSSS / SHA)
Wed 09:58:37 PM 31.2937 121.2283 North 235 270 4,900 -600 Level FlightAware ADS-B (ZSSS / SHA)
Wed 09:58:42 PM 31.2988 121.2274 359° North 233 268 4,800 -857 Descending FlightAware ADS-B (ZSSS / SHA)
Wed 09:58:51 PM 31.3096 121.2252 North 222 255 4,700 -1,000 Descending FlightAware ADS-B (ZSSS / SHA)
Wed 09:59:06 PM 31.3237 121.2226 359° North 218 251 4,400 -1,200 Descending FlightAware ADS-B (ZSSS / SHA)
Wed 09:59:11 PM 31.3289 121.2216 North 208 239 4,300 -1,200 Descending FlightAware ADS-B (ZSSS / SHA)
Wed 09:59:16 PM 31.3340 121.2207 359° North 199 229 4,200 -1,200 Descending FlightAware ADS-B (ZSSS / SHA)
Wed 09:59:21 PM 31.3388 121.2197 North 193 222 4,100 -1,200 Descending FlightAware ADS-B (ZSSS / SHA)
Wed 09:59:31 PM 31.3464 121.2190 12° North 194 223 3,900 -1,200 Descending FlightAware ADS-B (ZSSS / SHA)
Wed 09:59:36 PM 31.3498 121.2195 23° Northeast 195 224 3,800 -1,200 Descending FlightAware ADS-B (ZSSS / SHA)
Wed 10:00:11 PM 31.3671 121.2477 90° East 191 220 3,100 -1,200 Descending FlightAware ADS-B (ZSSS / SHA)
Wed 10:00:26 PM 31.3682 121.2585 91° East 195 224 2,800 -947 Descending FlightAware ADS-B (ZSSS / SHA)
Wed 10:00:49 PM 31.3699 121.2848 92° East 192 221 2,500 -800 Descending FlightAware ADS-B (ZSSS / SHA)
Wed 10:01:11 PM 31.3671 121.3043 126° Southeast 180 207 2,200 -462 Descending FlightAware ADS-B (ZSSS / SHA)
Wed 10:01:41 PM 31.3467 121.3218 155° Southeast 183 211 2,100 -343 Descending FlightAware ADS-B (ZSSS / SHA)
Wed 10:01:46 PM 31.3429 121.3235 163° South 183 211 2,000 -600 Descending FlightAware ADS-B (ZSSS / SHA)
Wed 10:01:51 PM 31.3390 121.3245 171° South 175 201 2,000  Level FlightAware ADS-B (ZSSS / SHA)
Wed 10:02:11 PM 31.3258 121.3261 178° South 164 189 2,000 -171 Level FlightAware ADS-B (ZSSS / SHA)
Wed 10:02:26 PM 31.3129 121.3265 178° South 152 175 1,900 -600 Descending FlightAware ADS-B (ZSSS / SHA)
Wed 10:02:41 PM 31.3024 121.3271 178° South 150 173 1,700 -600 Descending FlightAware ADS-B (ZSSS / SHA)
Wed 10:02:56 PM 31.2918 121.3277 177° South 148 170 1,600 -600 Descending FlightAware ADS-B (ZSSS / SHA)
Wed 10:03:11 PM 31.2813 121.3283 178° South 151 174 1,400 -800 Descending FlightAware ADS-B (ZSSS / SHA)
Wed 10:03:26 PM 31.2707 121.3289 177° South 148 170 1,200 -1,000 Descending FlightAware ADS-B (ZSSS / SHA)
Wed 10:03:41 PM 31.2607 121.3294 179° South 149 171 900 -800 Descending FlightAware ADS-B (ZSSS / SHA)
Wed 10:03:56 PM 31.2511 121.3297 177° South 145 167 800 -522 Descending FlightAware ADS-B (ZSSS / SHA)
Wed 10:04:04 PM 31.2468 121.3300 176° South 143 165 700 -750 Descending FlightAware ADS-B (ZSSS / SHA)
Wed 10:06:00 PM 31.1979 121.3363 174° South  Level Estimated
Wed 10:07:00 PM 31.1979 121.3363 North  Level Estimated
Wed 10:08:00 PM 31.1979 121.3363 North  Level Estimated
Wed 10:09:00 PM 31.1979 121.3363 North  Level Estimated
Wed 10:10:00 PM 31.1979 121.3363 North  Level Estimated
Wed 10:11:00 PM 31.1979 121.3363 North  Level Estimated
Wed 10:12:00 PM 31.1979 121.3363 North  Level Estimated
Wed 10:13:00 PM 31.1979 121.3363 North  Level Estimated
Wed 10:14:00 PM 31.1979 121.3363 North  Level Estimated
Wed 10:15:00 PM 31.1979 121.3363 North  Level Estimated
Wed 10:16:00 PM 31.1979 121.3363 North  Level Estimated
Wed 10:17:00 PM 31.1979 121.3363 North  Level Estimated
Wed 10:18:00 PM 31.1979 121.3363 North  Level Estimated
Wed 10:19:00 PM 31.1979 121.3363 North  Level Estimated
Wed 10:20:00 PM 31.1979 121.3363 North  Level Estimated
Wed 10:21:00 PM 31.1979 121.3363 North  Level Estimated
Wed 10:22:00 PM 31.1979 121.3363 North  Level Estimated
Wed 10:23:00 PM 31.1979 121.3363 North  Level Estimated
Wed 10:24:00 PM 31.1979 121.3363 North  Level Estimated
Wed 10:25:00 PM 31.1979 121.3363 North  Level Estimated
Wed 10:26:00 PM 31.1979 121.3363 North  Level Estimated

Login

Don't have an account? Register now (free) for customized features, flight alerts, and more!